Kennebunk, ME (04043)

2:05 AM EST on January 28, 2015 (GMT -0500)
APRSWXNET Kennebunkport ME US | Change Station
CLOSE
Current Station
Personal Weather Station
Location: Kennebunkport, ME
Elevation: 98 ft
Nearby Weather Stations

Elev 98 ft 43.37 °N, 70.47 °W | Updated 33 minutes ago

Snow
Snow
16 °F
Feels Like 6 °F
N
7
Wind Variable Wind from NNE
Gusts 16.0 mph

Today
High -- | Low -- °F
--% Chance of Precip.
Yesterday
High -- | Low -- °F
Precip. -- in
7:02 AM 4:48 PM
First Quarter, 62% visible
Pressure 29.65 in
Visibility 2.0 miles
Clouds Overcast 1300 ft
Windchill 6 °F
Dew Point 13 °F
Humidity 89%
Rainfall 0.00 in
Snow Depth Not available.
UV 0 out of 12
Pollen .10 out of 12
Air Quality Not available.
Flu Activity Not available.
METAR KSFM 280655Z AUTO 34014G19KT 2SM OVC013 M10/M13 A2965 RMK AO1

More Conditions Fewer Conditions

Pressure 29.65 in
Visibility 2.0 miles
Clouds Overcast 1300 ft
Windchill 6 °F
Dew Point 13 °F
Humidity 89%
Rainfall 0.00 in
Snow Depth Not available.
UV 0 out of 12
Pollen .10 out of 12
Air Quality Not available.
Flu Activity Not available.
METAR KSFM 280655Z AUTO 34014G19KT 2SM OVC013 M10/M13 A2965 RMK AO1

More Conditions Fewer Conditions

10-Day Weather Forecast

Almanac

Astronomy

Jan. 28, 2015 Rise Set
Actual Time
Civil Twilight
Nautical Twilight
Astronomical Twilight
Moon
Length of Visible Light
Length of Day
Tomorrow will be .
, % of the Moon is Illuminated

Today's Extremes

State Highs State Lows

Community

WunderPhotos

Upload Photos

1,791,118 photos uploaded!

WunderBlogs® & News

Nearby

Air Quality

  Air Quality AQ Index Pollutant
Not available.

Snow Depth

Station Depth Elevation

Earthquake Activity

City Distance Mag. Time & Date
Minimum magnitude displayed is 2.5.

Coastal Water Temperatures

Place Temperature

Nearby Weather Stations